Ulsteinvik  Ulsteinvik


Beaufortskalaen  Beaufortskalaen


Clouds and precipitation  Clouds and precipitation


warning for Snow/Ice more information rain snow radar


Snow/Ice From: 23-01-2020 01:00 Until: 25-01-2020 00:00 warning for: Snow/Ice Level: Yellow info button

Nearby METAR Reports

   
ENAL - Ålesund
Updated: 24-01-2020 09:50
Partly Cloudy  
Partly Cloudy  
   Wind: WSW 14.4 m/s
Wind: WSW 14.4 m/s
Temperature: 5°C
Wind Chill: -2°C
Dew Point: 1°C
Humidity: 76%
Barometer: 1001 hPa
Clouds: Partly Cloudy
Visibility: More than 10 km
Cloud details: Few Clouds 518.2 m,
Partly Cloudy 1188.7 m
ENAL 240850Z 24028KT 9999 FEW017TCU SCT039 05/01 Q1001
ENOV - Ørsta
Updated: 24-01-2020 09:50
Nearby Showers, Mostly Cloudy  
Nearby Showers, Mostly Cloudy  
   Wind: SW 4.1 m/s
Wind: SW 4.1 m/s
Temperature: 3°C
Wind Chill: -1°C
Dew Point: 0°C
Humidity: 81%
Barometer: 1004 hPa
Clouds: Mostly Cloudy
Visibility: More than 10 km
Cloud details: Few Clouds 518.2 m,
Partly Cloudy 762 m,
Mostly Cloudy 1036.3 m
ENOV 240850Z 22008KT 170V300 9999 VCSH FEW017 SCT025 BKN034 03/M00 Q1004 RMK WIND 2175FT 25029G46KT
ENML - Tafjorden
Updated: 24-01-2020 09:50
Light Showers, Rain, Mostly Cloudy  
Light Showers, Rain, Mostly Cloudy  
   Wind: WSW 11.8 m/s
Wind: WSW 11.8 m/s
Temperature: 3°C
Wind Chill: -3°C
Dew Point: 1°C
Humidity: 87%
Barometer: 1001 hPa
Clouds: Mostly Cloudy
Visibility: More than 10 km
Cloud details: Few Clouds 274.3 m,
Partly Cloudy 426.7 m,
Mostly Cloudy 609.6 m
ENML 240850Z 25023KT 9999 -SHRA FEW009 SCT014CB BKN020 03/01 Q1001 RESHRASNGS
ENML - Molde
Updated: 24-01-2020 09:50
Light Showers, Rain, Mostly Cloudy  
Light Showers, Rain, Mostly Cloudy  
   Wind: WSW 11.8 m/s
Wind: WSW 11.8 m/s
Temperature: 3°C
Wind Chill: -3°C
Dew Point: 1°C
Humidity: 87%
Barometer: 1001 hPa
Clouds: Mostly Cloudy
Visibility: More than 10 km
Cloud details: Few Clouds 274.3 m,
Partly Cloudy 426.7 m,
Mostly Cloudy 609.6 m
ENML 240850Z 25023KT 9999 -SHRA FEW009 SCT014CB BKN020 03/01 Q1001 RESHRASNGS
ENFL - Florø
Updated: 24-01-2020 09:50
Light Showers, Rain, Mostly Cloudy  
Light Showers, Rain, Mostly Cloudy  
   Wind: WSW 10.3 m/s
Wind: WSW 10.3 m/s
Temperature: 5°C
Wind Chill: -1°C
Dew Point: 1°C
Humidity: 76%
Barometer: 1006 hPa
Clouds: Mostly Cloudy
Visibility: More than 10 km
Cloud details: Few Clouds 457.2 m,
Partly Cloudy 914.4 m,
Mostly Cloudy 1371.6 m
ENFL 240850Z 25020KT 9999 -SHRA FEW015CB SCT030TCU BKN045 05/01 Q1006
ENVA - Trondheim
Updated: 24-01-2020 09:50
Nearby Showers, Mostly Cloudy  
Nearby Showers, Mostly Cloudy  
   Wind: SW 8.7 m/s<br />Gust to 8.7 m/s
Wind: SW 8.7 m/s
Gust to 8.7 m/s
Temperature: 3°C
Wind Chill: -3°C
Dew Point: -1°C
Humidity: 75%
Barometer: 998 hPa
Clouds: Mostly Cloudy
Visibility: More than 10 km
Cloud details: Few Clouds 213.4 m,
Partly Cloudy 1371.6 m,
Mostly Cloudy 1798.3 m
ENVA 240850Z 22017G28KT 180V240 9999 VCSH FEW007CB SCT045 BKN059 03/M01 Q0998 TEMPO 1500 SHSNRA BKN010CB RMK WIND 670FT 23020G32KT
ENBR - Bergen
Updated: 24-01-2020 09:50
Nearby Showers, Partly Cloudy  
Nearby Showers, Partly Cloudy  
   Wind: West 5.1 m/s
Wind: West 5.1 m/s
Temperature: 5°C
Wind Chill: 1°C
Dew Point: 2°C
Humidity: 81%
Barometer: 1010 hPa
Clouds: Partly Cloudy
Visibility: More than 10 km
Cloud details: Few Clouds 426.7 m,
Few Clouds 609.6 m,
Partly Cloudy 1066.8 m
ENBR 240850Z 26010KT 220V350 9999 VCSH FEW014CB FEW020 SCT035 05/02 Q1010 TEMPO 26015G25KT 4000 SHRA BKN014CB RMK WIND 1200FT 27017KT
ENZV - Stavanger
Updated: 24-01-2020 09:50
Partly Cloudy  
Partly Cloudy  
   Wind: varies 1 m/s
Wind: varies 1 m/s
Temperature: 5°C
Dew Point: 3°C
Humidity: 87%
Barometer: 1013 hPa
Clouds: Partly Cloudy
Visibility: More than 10 km
Cloud details: Few Clouds 609.6 m,
Partly Cloudy 1828.8 m
ENZV 240850Z VRB02KT 9999 FEW020 SCT060 05/03 Q1013 TEMPO 26012G22KT SHRA BKN014CB
ENGM - Oslo
Updated: 24-01-2020 09:50
Clear  
Clear  
   Wind: South 3.1 m/s
Wind: South 3.1 m/s
Temperature: 0°C
Wind Chill: -3°C
Dew Point: -2°C
Humidity: 87%
Barometer: 1005 hPa
Visibility: More than 10 km
Cloud details: Clear
ENGM 240850Z 17006KT CAVOK M00/M02 Q1005 NOSIG
ESSA - Stockholm
Updated: 24-01-2020 09:50
Clear  
Clear  
   Wind: WSW 6.2 m/s
Wind: WSW 6.2 m/s
Temperature: 5°C
Wind Chill: 1°C
Dew Point: 3°C
Humidity: 87%
Barometer: 1003 hPa
Visibility: More than 10 km
Cloud details: Clear
ESSA 240850Z 25012KT CAVOK 05/03 Q1003 R01L/19//95 R08/19//95 R01R/19//95 NOSIG
EKCH - København
Updated: 24-01-2020 09:50
Light Drizzle, Mostly Cloudy  
Light Drizzle, Mostly Cloudy  
   Wind: WSW 5.1 m/s
Wind: WSW 5.1 m/s
Temperature: 6°C
Wind Chill: 3°C
Dew Point: 6°C
Humidity: 100%
Barometer: 1017 hPa
Clouds: Mostly Cloudy
Visibility: 6 km
Cloud details: Partly Cloudy 121.9 m,
Mostly Cloudy 243.8 m
EKCH 240850Z 25010KT 6000 -DZ SCT004 BKN008 06/06 Q1017 TEMPO BKN015
ENHV - Nordkapp
Updated: 24-01-2020 09:50
Light Snow, Mostly Cloudy  
Light Snow, Mostly Cloudy  
   Wind: South 5.7 m/s
Wind: South 5.7 m/s
Temperature: -3°C
Wind Chill: -9°C
Dew Point: -4°C
Humidity: 93%
Barometer: 982 hPa
Clouds: Mostly Cloudy
Visibility: 8 km
Cloud details: Partly Cloudy 304.8 m,
Mostly Cloudy 1188.7 m
ENHV 240850Z 18011KT 8000 -SN SCT010 BKN039 M03/M04 Q0982
ENSB - Svalbard
Updated: 24-01-2020 09:50
Blowing, Snow, Few Clouds  
Blowing, Snow, Few Clouds  
   Wind: ESE 19 m/s<br />Gust to 19 m/s
Wind: ESE 19 m/s
Gust to 19 m/s
Temperature: -16°C
Wind Chill: -32°C
Dew Point: -21°C
Humidity: 66%
Barometer: 1007 hPa
Clouds: Few Clouds
Visibility: More than 10 km
Cloud details: Few Clouds 609.6 m
ENSB 240850Z 12037G49KT 9999 BLSN FEW020 M16/M21 Q1007 TEMPO 12027G39KT RMK WIND 1400FT 11058KT
NZSP - Sørpolen
Updated: 24-01-2020 06:50
NOT Current
Ice Crystals, Mostly Cloudy  
Ice Crystals, Mostly Cloudy  
   Wind: East 3.6 m/s
Wind: East 3.6 m/s
Temperature: -30°C
Wind Chill: -41°C
Barometer: 983.1 hPa
Clouds: Mostly Cloudy
Visibility: More than 10 km
Cloud details: Partly Cloudy 304.8 m,
Mostly Cloudy 2133.6 m,
Mostly Cloudy 2743.2 m
NZSP 240550Z 09007KT 9999 IC SCT010 BKN070 BKN090 M30/ A2903 RMK CLN AIR 10007KT ALL WNDS GRID SDG/HDG
 

Script developed by  Saratoga-weather.org Adapted for the template by  Weerstation Leuven

Equipment we use:

Weather-station
Davis VP2+ 24/H Fars, Online-Ups, 4G Backup.

Weather-program
Weather Display

Weather-server
Custom builds pcs

Provider
Hosted By Pro Isp

Davis VP2+ 24/H Fars, Online-Ups, 4G Backup.

Weather Display

Custom builds pcs

Hosted By Pro Isp